Terminal Aerodrome Forecast
Issued by NWS Duluth, MN

Home | Current Version | Previous Version | Text Only | Print | Product List | Glossary On
Versions: 1 2 3 4 5 6 7 8 9 10 11 12 13 14 15 16 17 18 19 20 21 22 23 24 25 26
000
FTUS43 KDLH 150950 AAB
TAFINL
TAF AMD
KINL 150950Z 1510/1606 00000KT 6SM BR SKC
      TEMPO 1510/1512 1SM BR BKN003
     FM151300 17004KT P6SM FEW150
     FM152100 17005KT P6SM BKN150
     FM160100 VRB03KT P6SM BKN100=

USA.gov is the U.S. government's official web portal to all federal, state and local government web resources and services.